Time;durP1;ratioP1;P1;durP2;ratioP2;P2;SDS_P1;SDS_P2;PMS_P1;PMS_P2;Temp;Humidity;BMP_temperature;BMP_pressure;BME280_temperature;BME280_humidity;BME280_pressure;Samples;Min_cycle;Max_cycle;Signal;HPM_P1;HPM_P2
2022/07/30 00:02:12;;;;;;;;;;;;;;;20.82;71.92;100245.24;1429120;90;20345;-86
2022/07/30 00:04:38;;;;;;;;;;;;;;;20.75;72.38;100244.48;1427278;90;20389;-86
2022/07/30 00:07:04;;;;;;;;;;;;;;;20.74;71.71;100241.48;1455246;89;20359;-85
2022/07/30 00:09:30;;;;;;;;;;;;;;;20.73;73.11;100243.87;1429170;90;21382;-86
2022/07/30 00:11:56;;;;;;;;;;;;;;;20.71;73.11;100241.42;1444128;90;20330;-86
2022/07/30 00:14:22;;;;;;;;;;;;;;;20.71;73.03;100237.88;1430566;90;20522;-85
2022/07/30 00:16:48;;;;;;;;;;;;;;;20.66;73.69;100226.45;1406715;92;20302;-85
2022/07/30 00:19:14;;;;;;;;;;;;;;;20.67;73.00;100232.66;1404161;92;20347;-86
2022/07/30 00:21:40;;;;;;;;;;;;;;;20.64;73.63;100228.53;1399657;92;20417;-86
2022/07/30 00:24:07;;;;;;;;;;;;;;;20.60;73.90;100231.37;1420454;92;20295;-86
2022/07/30 00:26:33;;;;;;;;;;;;;;;20.60;73.57;100225.98;1455585;90;20432;-86
2022/07/30 00:28:59;;;;;;;;;;;;;;;20.57;74.36;100229.12;1453184;90;20317;-86
2022/07/30 00:31:25;;;;;;;;;;;;;;;20.54;73.49;100226.84;1449640;89;20303;-86
2022/07/30 00:33:51;;;;;;;;;;;;;;;20.53;74.28;100229.23;1445557;89;20318;-86
2022/07/30 00:36:17;;;;;;;;;;;;;;;20.51;75.38;100225.89;1453131;89;20309;-86
2022/07/30 00:38:43;;;;;;;;;;;;;;;20.44;75.48;100224.61;1458947;90;20325;-86
2022/07/30 00:41:12;;;;;;;;;;;;;;;20.43;75.39;100224.84;1453139;90;20505;-85
2022/07/30 00:43:38;;;;;;;;;;;;;;;20.41;75.01;100224.23;1459465;90;20318;-84
2022/07/30 00:46:04;;;;;;;;;;;;;;;20.36;76.18;100225.39;1457400;88;20484;-85
2022/07/30 00:48:29;;;;;;;;;;;;;;;20.28;76.23;100220.59;1452470;89;20845;-84
2022/07/30 00:50:55;;;;;;;;;;;;;;;20.26;75.79;100215.95;1462341;89;20400;-86
2022/07/30 00:53:21;;;;;;;;;;;;;;;20.24;76.12;100211.30;1452696;90;20311;-85
2022/07/30 00:55:47;;;;;;;;;;;;;;;20.18;76.92;100205.45;1457183;90;20331;-85
2022/07/30 00:58:13;;;;;;;;;;;;;;;20.11;77.19;100205.17;1460128;89;20407;-85
2022/07/30 01:00:39;;;;;;;;;;;;;;;20.03;77.28;100208.95;1457927;90;20318;-85
2022/07/30 01:03:05;;;;;;;;;;;;;;;19.99;77.85;100204.51;1448326;89;20884;-85
2022/07/30 01:05:32;;;;;;;;;;;;;;;19.97;77.79;100202.58;1451205;90;20281;-84
2022/07/30 01:07:58;;;;;;;;;;;;;;;19.93;78.51;100203.20;1452108;89;20473;-83
2022/07/30 01:10:24;;;;;;;;;;;;;;;19.91;78.85;100197.22;1463643;87;20877;-82
2022/07/30 01:12:51;;;;;;;;;;;;;;;19.90;78.32;100192.89;1475836;88;20454;-82
2022/07/30 01:15:17;;;;;;;;;;;;;;;19.90;78.26;100189.69;1470219;88;20276;-83
2022/07/30 01:17:43;;;;;;;;;;;;;;;19.94;78.46;100180.67;1474826;88;20580;-82
2022/07/30 01:20:16;;;;;;;;;;;;;;;19.97;78.26;100176.24;1474131;88;20298;-83
2022/07/30 01:23:05;;;;;;;;;;;;;;;19.99;77.85;100174.14;1477099;88;20367;-83
2022/07/30 01:25:38;;;;;;;;;;;;;;;19.99;78.87;100170.11;1475628;87;20867;-84
2022/07/30 01:28:09;;;;;;;;;;;;;;;19.94;79.21;100168.59;1471237;87;21667;-85
2022/07/30 01:30:39;;;;;;;;;;;;;;;19.92;78.68;100161.28;1479308;88;20931;-85
2022/07/30 01:33:07;;;;;;;;;;;;;;;19.88;78.95;100165.42;1477724;88;20326;-85
2022/07/30 01:35:33;;;;;;;;;;;;;;;19.85;78.82;100158.61;1469915;87;20297;-87
2022/07/30 01:38:00;;;;;;;;;;;;;;;19.80;78.96;100161.96;1457747;88;20441;-87
2022/07/30 01:40:27;;;;;;;;;;;;;;;19.79;79.35;100158.98;1449990;89;20402;-87
2022/07/30 01:42:54;;;;;;;;;;;;;;;19.80;79.32;100151.22;1450465;89;20290;-86
2022/07/30 01:45:22;;;;;;;;;;;;;;;19.79;79.09;100159.48;1475469;88;20289;-86
2022/07/30 01:47:49;;;;;;;;;;;;;;;19.80;78.82;100149.88;1476346;87;20335;-85
2022/07/30 01:50:15;;;;;;;;;;;;;;;19.76;79.37;100155.36;1456926;87;20896;-83
2022/07/30 01:52:42;;;;;;;;;;;;;;;19.76;80.18;100159.91;1483542;87;20483;-83
2022/07/30 01:55:10;;;;;;;;;;;;;;;19.71;79.93;100157.88;1477104;87;20303;-84
2022/07/30 01:57:37;;;;;;;;;;;;;;;19.64;79.63;100158.91;1475450;88;20297;-84
2022/07/30 02:00:06;;;;;;;;;;;;;;;19.56;80.28;100157.28;1474571;88;20297;-85
2022/07/30 02:02:35;;;;;;;;;;;;;;;19.50;80.61;100162.16;1476107;88;20335;-85
2022/07/30 02:05:01;;;;;;;;;;;;;;;19.46;81.49;100166.31;1474412;88;20313;-84
2022/07/30 02:07:37;;;;;;;;;;;;;;;19.41;81.59;100170.15;1476866;88;20303;-85
2022/07/30 02:10:15;;;;;;;;;;;;;;;19.34;81.92;100165.63;1474386;87;20296;-84
2022/07/30 02:12:44;;;;;;;;;;;;;;;19.31;81.48;100159.34;1475288;87;20369;-85
2022/07/30 02:15:25;;;;;;;;;;;;;;;19.29;81.55;100152.54;1415571;87;20244;-85
2022/07/30 02:18:02;;;;;;;;;;;;;;;19.24;82.38;100147.80;1440739;88;20252;-85
2022/07/30 02:20:29;;;;;;;;;;;;;;;19.20;82.21;100143.08;1563626;88;20327;-86
2022/07/30 02:23:04;;;;;;;;;;;;;;;19.13;82.37;100149.78;1477530;90;20234;-85
2022/07/30 02:25:33;;;;;;;;;;;;;;;19.11;83.58;100146.51;1500893;90;20262;-85
2022/07/30 02:28:02;;;;;;;;;;;;;;;19.08;82.85;100141.57;1432518;89;20306;-85
2022/07/30 02:30:30;;;;;;;;;;;;;;;19.05;83.66;100141.99;1551087;88;20322;-85
2022/07/30 02:33:00;;;;;;;;;;;;;;;19.02;82.61;100137.02;1384665;89;20827;-84
2022/07/30 02:35:27;;;;;;;;;;;;;;;19.00;82.80;100131.06;1471580;90;20239;-83
2022/07/30 02:37:53;;;;;;;;;;;;;;;19.00;83.08;100124.36;1378237;90;20358;-84
2022/07/30 02:40:20;;;;;;;;;;;;;;;19.00;82.86;100125.70;1466345;87;20298;-84
2022/07/30 02:43:05;;;;;;;;;;;;;;;19.01;83.68;100125.99;1444837;89;20901;-85
2022/07/30 02:45:31;;;;;;;;;;;;;;;18.98;83.26;100119.71;1454027;86;20455;-84
2022/07/30 02:48:00;;;;;;;;;;;;;;;19.00;82.56;100122.49;1448256;89;20300;-85
2022/07/30 02:50:27;;;;;;;;;;;;;;;18.98;82.66;100117.84;1462630;88;20225;-84
2022/07/30 02:52:54;;;;;;;;;;;;;;;18.97;83.27;100124.78;1457293;88;20796;-85
2022/07/30 02:55:21;;;;;;;;;;;;;;;18.98;82.91;100127.76;1459397;88;20276;-84
2022/07/30 02:57:48;;;;;;;;;;;;;;;18.98;83.32;100125.89;1466456;87;20280;-84
2022/07/30 03:00:15;;;;;;;;;;;;;;;18.95;83.26;100131.67;1469174;88;20282;-85
2022/07/30 03:02:42;;;;;;;;;;;;;;;18.93;82.86;100125.69;1468916;88;20340;-84
2022/07/30 03:05:09;;;;;;;;;;;;;;;18.91;83.65;100112.52;1462988;88;20459;-84
2022/07/30 03:07:36;;;;;;;;;;;;;;;18.90;83.61;100120.27;1471161;88;20273;-84
2022/07/30 03:10:03;;;;;;;;;;;;;;;18.90;82.92;100114.89;1479232;87;20296;-84
2022/07/30 03:12:30;;;;;;;;;;;;;;;18.89;82.95;100108.39;1478399;87;20460;-86
2022/07/30 03:14:57;;;;;;;;;;;;;;;18.90;82.35;100106.00;1482794;87;20318;-86
2022/07/30 03:17:25;;;;;;;;;;;;;;;18.89;82.41;100101.16;1493523;87;20422;-87
2022/07/30 03:19:52;;;;;;;;;;;;;;;18.89;82.39;100091.78;1493487;87;20743;-87
2022/07/30 03:22:20;;;;;;;;;;;;;;;18.87;84.75;100095.70;1499841;86;20393;-87
2022/07/30 03:24:47;;;;;;;;;;;;;;;18.86;83.56;100097.56;1474670;86;20292;-87
2022/07/30 03:27:14;;;;;;;;;;;;;;;18.84;84.44;100099.62;1473698;86;20816;-87
2022/07/30 03:29:41;;;;;;;;;;;;;;;18.79;84.87;100100.79;1488038;86;20959;-87
2022/07/30 03:32:07;;;;;;;;;;;;;;;18.73;85.71;100101.59;1465638;87;20314;-87
2022/07/30 03:34:34;;;;;;;;;;;;;;;18.68;86.23;100098.71;1467103;88;20314;-87
2022/07/30 03:37:03;;;;;;;;;;;;;;;18.66;87.05;100102.92;1469894;86;20301;-88
2022/07/30 03:39:33;;;;;;;;;;;;;;;18.66;86.55;100107.47;1491943;86;20464;-87
2022/07/30 03:42:00;;;;;;;;;;;;;;;18.66;87.99;100102.11;1489471;86;20341;-86
2022/07/30 03:44:26;;;;;;;;;;;;;;;18.72;86.13;100103.95;1480984;87;20380;-86
2022/07/30 03:46:53;;;;;;;;;;;;;;;18.75;86.45;100095.52;1453531;88;20818;-86
2022/07/30 03:49:20;;;;;;;;;;;;;;;18.79;86.60;100090.55;1485490;88;20335;-87
2022/07/30 03:51:46;;;;;;;;;;;;;;;18.85;85.79;100089.22;1449545;88;20431;-87
2022/07/30 03:54:13;;;;;;;;;;;;;;;18.93;84.92;100090.83;1474283;88;20797;-86
2022/07/30 03:56:39;;;;;;;;;;;;;;;19.02;85.51;100090.94;1485719;86;20414;-86
2022/07/30 03:59:05;;;;;;;;;;;;;;;19.10;83.96;100088.02;1496218;86;20243;-87
2022/07/30 04:01:31;;;;;;;;;;;;;;;19.18;83.99;100090.97;1495216;86;20346;-86
2022/07/30 04:04:05;;;;;;;;;;;;;;;19.20;84.22;100092.93;1490530;86;20251;-86
2022/07/30 04:06:32;;;;;;;;;;;;;;;19.24;84.07;100092.80;1497339;86;20399;-86
2022/07/30 04:08:58;;;;;;;;;;;;;;;19.27;83.62;100088.88;1480627;86;20764;-86
2022/07/30 04:11:24;;;;;;;;;;;;;;;19.34;83.34;100087.82;1453968;89;20336;-88
2022/07/30 04:13:50;;;;;;;;;;;;;;;19.45;82.96;100085.48;1463624;89;20344;-87
2022/07/30 04:16:21;;;;;;;;;;;;;;;19.51;82.44;100077.95;1459943;89;20276;-87
2022/07/30 04:18:50;;;;;;;;;;;;;;;19.56;82.65;100078.09;1441724;89;20374;-87
2022/07/30 04:21:18;;;;;;;;;;;;;;;19.57;83.06;100084.61;1479022;86;20317;-87
2022/07/30 04:23:46;;;;;;;;;;;;;;;19.60;82.25;100088.73;1487553;86;20515;-87
2022/07/30 04:26:13;;;;;;;;;;;;;;;19.61;81.67;100083.66;1469617;88;20310;-86
2022/07/30 04:28:38;;;;;;;;;;;;;;;19.62;82.19;100081.27;1478669;88;20913;-88
2022/07/30 04:31:04;;;;;;;;;;;;;;;19.66;81.75;100081.19;1467067;87;20403;-88
2022/07/30 04:33:31;;;;;;;;;;;;;;;19.75;82.08;100075.86;1494600;87;20281;-87
2022/07/30 04:35:57;;;;;;;;;;;;;;;19.78;81.25;100075.42;1498637;86;20301;-88
2022/07/30 04:38:23;;;;;;;;;;;;;;;19.87;81.24;100076.52;1502540;86;20904;-88
2022/07/30 04:40:48;;;;;;;;;;;;;;;19.92;80.91;100078.84;1492168;86;20275;-88
2022/07/30 04:43:15;;;;;;;;;;;;;;;19.96;80.33;100080.57;1463948;88;20306;-88
2022/07/30 04:45:41;;;;;;;;;;;;;;;19.97;80.28;100070.16;1463500;86;20294;-88
2022/07/30 04:48:07;;;;;;;;;;;;;;;20.08;79.67;100069.42;1476676;88;20346;-87
2022/07/30 04:50:35;;;;;;;;;;;;;;;20.18;79.43;100064.92;1461360;88;20878;-86
2022/07/30 04:53:02;;;;;;;;;;;;;;;20.26;79.86;100064.13;1459058;88;20305;-86
2022/07/30 04:55:29;;;;;;;;;;;;;;;20.38;79.17;100062.88;1460240;88;20304;-81
2022/07/30 04:57:55;;;;;;;;;;;;;;;20.51;78.53;100062.77;1471662;86;20313;-83
2022/07/30 05:00:21;;;;;;;;;;;;;;;20.58;78.00;100063.25;1462385;88;20350;-82
2022/07/30 05:02:48;;;;;;;;;;;;;;;20.67;77.45;100057.34;1490126;86;20310;-83
2022/07/30 05:05:15;;;;;;;;;;;;;;;20.73;76.86;100056.45;1466022;88;20804;-83
2022/07/30 05:07:42;;;;;;;;;;;;;;;20.75;76.74;100055.43;1467303;87;20336;-82
2022/07/30 05:10:10;;;;;;;;;;;;;;;20.87;76.34;100056.32;1450952;89;21185;-83
2022/07/30 05:12:37;;;;;;;;;;;;;;;20.93;75.83;100056.77;1465816;87;20414;-85
2022/07/30 05:15:08;;;;;;;;;;;;;;;21.02;75.60;100056.75;1494970;87;20259;-84
2022/07/30 05:17:35;;;;;;;;;;;;;;;21.11;75.50;100055.92;1486566;87;20348;-84
2022/07/30 05:20:01;;;;;;;;;;;;;;;21.25;75.71;100049.86;1477965;87;20883;-85
2022/07/30 05:22:29;;;;;;;;;;;;;;;21.24;74.24;100053.08;1477181;87;20225;-85
2022/07/30 05:24:56;;;;;;;;;;;;;;;21.35;74.39;100056.36;1471760;88;20276;-86
2022/07/30 05:27:22;;;;;;;;;;;;;;;21.43;73.80;100051.19;1456343;89;20283;-83
2022/07/30 05:29:48;;;;;;;;;;;;;;;21.52;73.60;100059.27;1489941;87;20272;-84
2022/07/30 05:32:14;;;;;;;;;;;;;;;21.66;73.57;100060.41;1486539;87;20996;-83
2022/07/30 05:34:39;;;;;;;;;;;;;;;21.81;73.08;100072.95;1476282;88;20283;-83
2022/07/30 05:37:06;;;;;;;;;;;;;;;21.93;72.83;100068.41;1477256;87;20335;-83
2022/07/30 05:39:32;;;;;;;;;;;;;;;22.03;71.79;100064.59;1485102;87;20354;-82
2022/07/30 05:41:58;;;;;;;;;;;;;;;22.14;71.56;100067.55;1457247;88;20376;-84
2022/07/30 05:44:23;;;;;;;;;;;;;;;22.26;70.94;100069.77;1462071;88;20244;-85
2022/07/30 05:46:50;;;;;;;;;;;;;;;22.36;70.33;100077.29;1490733;87;20296;-84
2022/07/30 05:49:17;;;;;;;;;;;;;;;22.47;69.68;100088.58;1467277;87;20848;-86
2022/07/30 05:51:44;;;;;;;;;;;;;;;22.55;68.71;100094.16;1472842;87;20254;-83
2022/07/30 05:54:10;;;;;;;;;;;;;;;22.58;67.97;100093.69;1476841;87;20693;-84
2022/07/30 05:56:36;;;;;;;;;;;;;;;22.60;67.59;100084.31;1485398;87;20318;-84
2022/07/30 05:59:03;;;;;;;;;;;;;;;22.68;67.06;100088.54;1497370;87;20311;-84
2022/07/30 06:01:29;;;;;;;;;;;;;;;22.78;67.54;100087.41;1477334;87;20312;-85
2022/07/30 06:03:54;;;;;;;;;;;;;;;22.95;68.41;100092.93;1489386;86;20498;-84
2022/07/30 06:06:20;;;;;;;;;;;;;;;23.06;67.59;100096.67;1462857;87;20915;-84
2022/07/30 06:08:47;;;;;;;;;;;;;;;23.16;66.97;100099.57;1478156;87;20906;-84
2022/07/30 06:11:13;;;;;;;;;;;;;;;23.32;66.86;100101.53;1472777;87;20285;-85
2022/07/30 06:13:39;;;;;;;;;;;;;;;23.28;64.45;100111.72;1461737;89;20351;-85
2022/07/30 06:16:05;;;;;;;;;;;;;;;23.37;64.85;100116.49;1475649;87;20284;-85
2022/07/30 06:18:30;;;;;;;;;;;;;;;23.54;65.46;100117.09;1494942;86;20287;-85
2022/07/30 06:20:57;;;;;;;;;;;;;;;23.71;65.33;100107.69;1460477;86;20783;-85
2022/07/30 06:23:22;;;;;;;;;;;;;;;23.82;64.04;100102.26;1458374;88;20364;-85
2022/07/30 06:25:49;;;;;;;;;;;;;;;23.93;62.80;100100.53;1455169;87;20395;-84
2022/07/30 06:28:16;;;;;;;;;;;;;;;24.02;62.36;100096.91;1471875;86;20440;-83
2022/07/30 06:30:44;;;;;;;;;;;;;;;24.21;63.62;100098.31;1496440;86;20310;-83
2022/07/30 06:33:11;;;;;;;;;;;;;;;24.31;61.61;100098.49;1465599;86;20306;-83
2022/07/30 06:35:37;;;;;;;;;;;;;;;24.41;61.62;100099.71;1505223;86;20354;-83
2022/07/30 06:38:03;;;;;;;;;;;;;;;24.56;61.82;100102.67;1491846;86;20592;-83
2022/07/30 06:40:29;;;;;;;;;;;;;;;24.73;61.99;100100.76;1467450;87;20253;-83
2022/07/30 06:42:55;;;;;;;;;;;;;;;24.84;60.14;100098.20;1500484;86;20418;-83
2022/07/30 06:45:20;;;;;;;;;;;;;;;24.96;61.01;100102.42;1467573;89;20350;-83
2022/07/30 06:47:46;;;;;;;;;;;;;;;25.03;59.99;100096.84;1466262;87;20243;-84
2022/07/30 06:50:12;;;;;;;;;;;;;;;25.10;59.49;100096.12;1467397;86;20262;-84
2022/07/30 06:52:38;;;;;;;;;;;;;;;25.02;59.15;100097.91;1470550;86;20358;-84
2022/07/30 06:55:05;;;;;;;;;;;;;;;24.94;59.13;100094.27;1485638;87;20811;-85
2022/07/30 06:57:30;;;;;;;;;;;;;;;25.14;58.97;100096.45;1498053;86;20287;-86
2022/07/30 06:59:56;;;;;;;;;;;;;;;25.19;59.25;100091.92;1496972;86;20259;-86
2022/07/30 07:02:22;;;;;;;;;;;;;;;25.35;59.73;100088.88;1477637;86;20842;-86
2022/07/30 07:04:48;;;;;;;;;;;;;;;25.52;59.12;100096.08;1464321;86;20298;-86
2022/07/30 07:07:14;;;;;;;;;;;;;;;25.61;59.06;100094.58;1488617;86;20280;-86
2022/07/30 07:09:39;;;;;;;;;;;;;;;25.66;57.70;100091.38;1502722;87;20295;-85
2022/07/30 07:12:06;;;;;;;;;;;;;;;25.64;57.11;100088.10;1499778;86;20280;-86
2022/07/30 07:14:31;;;;;;;;;;;;;;;25.73;58.02;100086.29;1477065;86;20362;-85
2022/07/30 07:16:57;;;;;;;;;;;;;;;25.75;56.50;100080.05;1453693;88;20876;-86
2022/07/30 07:19:24;;;;;;;;;;;;;;;25.94;57.22;100072.41;1468959;87;20284;-85
2022/07/30 07:21:49;;;;;;;;;;;;;;;26.04;57.22;100070.62;1486052;86;20265;-84
2022/07/30 07:24:15;;;;;;;;;;;;;;;26.21;57.41;100081.33;1467590;87;21331;-84
2022/07/30 07:26:41;;;;;;;;;;;;;;;26.23;55.69;100068.85;1471928;86;20867;-84
2022/07/30 07:29:07;;;;;;;;;;;;;;;26.33;54.92;100067.58;1491403;86;20393;-84
2022/07/30 07:31:33;;;;;;;;;;;;;;;26.40;55.03;100062.73;1477633;86;20302;-85
2022/07/30 07:33:59;;;;;;;;;;;;;;;26.58;55.74;100064.23;1459953;87;20261;-85
2022/07/30 07:36:25;;;;;;;;;;;;;;;26.50;54.25;100064.75;1464904;86;20291;-85
2022/07/30 07:38:51;;;;;;;;;;;;;;;26.71;55.34;100053.45;1465250;86;20284;-84
2022/07/30 07:41:17;;;;;;;;;;;;;;;26.88;54.32;100054.09;1462453;87;20290;-88
2022/07/30 07:43:43;;;;;;;;;;;;;;;27.01;54.65;100045.44;1461269;86;21084;-86
2022/07/30 07:46:09;;;;;;;;;;;;;;;27.19;54.46;100042.02;1498500;86;20399;-88
2022/07/30 07:48:38;;;;;;;;;;;;;;;27.39;54.15;100043.95;1445327;88;20283;-87
2022/07/30 07:51:04;;;;;;;;;;;;;;;27.53;53.41;100039.63;1476007;88;20291;-88
2022/07/30 07:53:30;;;;;;;;;;;;;;;27.68;52.70;100045.66;1470069;88;20290;-86
2022/07/30 07:55:59;;;;;;;;;;;;;;;27.84;51.55;100036.44;1498151;86;20288;-85
2022/07/30 07:58:25;;;;;;;;;;;;;;;27.90;52.02;100028.55;1500658;87;20288;-87
2022/07/30 08:00:51;;;;;;;;;;;;;;;27.99;51.29;100023.92;1478146;86;20291;-88
2022/07/30 08:03:17;;;;;;;;;;;;;;;28.00;51.14;100021.50;1470878;86;20838;-88
2022/07/30 08:05:43;;;;;;;;;;;;;;;27.88;51.04;100019.87;1488563;87;20430;-88
2022/07/30 08:08:09;;;;;;;;;;;;;;;27.74;50.77;100013.31;1494613;87;20287;-87
2022/07/30 08:10:35;;;;;;;;;;;;;;;27.56;50.93;100010.55;1502379;86;20802;-88
2022/07/30 08:13:02;;;;;;;;;;;;;;;27.56;51.69;100000.23;1496318;86;20381;-88
2022/07/30 08:15:30;;;;;;;;;;;;;;;27.59;51.36;100005.97;1480416;86;20436;-88
2022/07/30 08:17:56;;;;;;;;;;;;;;;27.84;51.78;100001.09;1500170;86;20381;-88
2022/07/30 08:20:23;;;;;;;;;;;;;;;28.03;51.03;99995.11;1483303;86;20561;-88
2022/07/30 08:22:49;;;;;;;;;;;;;;;28.28;51.04;100000.52;1470362;87;20343;-88
2022/07/30 08:25:15;;;;;;;;;;;;;;;28.52;49.92;99997.22;1463673;88;20284;-88
2022/07/30 08:27:43;;;;;;;;;;;;;;;28.62;48.31;99993.08;1463649;87;20313;-88
2022/07/30 08:30:10;;;;;;;;;;;;;;;28.65;49.24;99993.88;1473232;87;20319;-88
2022/07/30 08:32:38;;;;;;;;;;;;;;;28.81;48.92;100000.09;1458479;87;20908;-88
2022/07/30 08:35:05;;;;;;;;;;;;;;;28.89;47.55;99995.44;1486410;86;20266;-88
2022/07/30 08:37:31;;;;;;;;;;;;;;;29.19;48.85;99995.02;1498205;86;20476;-88
2022/07/30 08:39:58;;;;;;;;;;;;;;;29.43;47.87;99988.31;1487388;87;20244;-87
2022/07/30 08:42:25;;;;;;;;;;;;;;;29.68;48.56;99984.06;1492124;87;20291;-88
2022/07/30 08:44:53;;;;;;;;;;;;;;;29.82;46.78;99986.15;1465261;87;20240;-88
2022/07/30 08:47:22;;;;;;;;;;;;;;;29.82;44.33;99980.14;1464649;87;20301;-88
2022/07/30 08:49:48;;;;;;;;;;;;;;;29.84;44.30;99979.87;1496115;87;20444;-88
2022/07/30 08:52:14;;;;;;;;;;;;;;;29.88;44.97;99975.45;1496665;87;20287;-88
2022/07/30 08:54:40;;;;;;;;;;;;;;;29.90;45.21;99980.08;1482534;86;21140;-88
2022/07/30 08:57:06;;;;;;;;;;;;;;;29.88;44.50;99975.45;1506664;86;20287;-88
2022/07/30 08:59:32;;;;;;;;;;;;;;;30.00;45.47;99973.14;1484429;86;20266;-86
2022/07/30 09:01:58;;;;;;;;;;;;;;;30.09;44.76;99965.95;1502625;86;20377;-91
2022/07/30 09:04:24;;;;;;;;;;;;;;;30.18;45.35;99966.70;1497223;87;20377;-89
2022/07/30 09:06:50;;;;;;;;;;;;;;;30.32;44.12;99969.03;1479541;87;20712;-87
2022/07/30 09:09:16;;;;;;;;;;;;;;;30.47;45.04;99966.14;1478438;87;20297;-90
2022/07/30 09:11:42;;;;;;;;;;;;;;;30.62;44.27;99954.77;1450564;88;20283;-88
2022/07/30 09:14:11;;;;;;;;;;;;;;;30.70;42.89;99960.40;1472004;87;20258;-87
2022/07/30 09:16:37;;;;;;;;;;;;;;;30.71;43.13;99952.45;1499050;87;20273;-87
2022/07/30 09:19:21;;;;;;;;;;;;;;;30.74;43.06;99953.79;1494709;86;20408;-85
2022/07/30 09:21:57;;;;;;;;;;;;;;;30.75;42.26;99948.58;1479816;87;20781;-87
2022/07/30 09:24:24;;;;;;;;;;;;;;;30.84;43.36;99938.64;1474957;88;20427;-85
2022/07/30 09:27:01;;;;;;;;;;;;;;;30.92;42.86;99944.01;1470393;88;20482;-87
2022/07/30 09:29:29;;;;;;;;;;;;;;;31.02;43.66;99940.59;1478098;87;20305;-88
2022/07/30 09:32:01;;;;;;;;;;;;;;;31.06;41.87;99941.36;1492027;87;20356;-89
2022/07/30 09:34:33;;;;;;;;;;;;;;;31.10;42.63;99941.02;1484782;86;20284;-88
2022/07/30 09:37:01;;;;;;;;;;;;;;;31.14;41.92;99942.88;1490111;87;20265;-89
2022/07/30 09:39:36;;;;;;;;;;;;;;;31.28;42.67;99938.84;1481024;87;20254;-89
2022/07/30 09:42:05;;;;;;;;;;;;;;;31.39;42.71;99940.86;1489712;87;20319;-89
2022/07/30 09:44:31;;;;;;;;;;;;;;;31.33;41.21;99933.83;1474983;87;20388;-88
2022/07/30 09:46:57;;;;;;;;;;;;;;;31.25;41.79;99932.61;1484364;87;20239;-88
2022/07/30 09:49:25;;;;;;;;;;;;;;;31.28;40.93;99927.10;1491182;86;20393;-89
2022/07/30 09:51:52;;;;;;;;;;;;;;;31.28;41.12;99923.81;1479848;87;20255;-89
2022/07/30 09:54:18;;;;;;;;;;;;;;;31.35;41.59;99916.58;1471777;87;20327;-88
2022/07/30 09:56:47;;;;;;;;;;;;;;;31.43;41.12;99917.30;1481550;87;20444;-88
2022/07/30 09:59:28;;;;;;;;;;;;;;;31.46;40.67;99916.14;1478169;87;20305;-89
2022/07/30 10:01:55;;;;;;;;;;;;;;;31.55;41.68;99915.46;1494725;87;20318;-86
2022/07/30 10:04:27;;;;;;;;;;;;;;;31.65;40.89;99908.43;1471461;87;20302;-88
2022/07/30 10:06:57;;;;;;;;;;;;;;;31.68;40.30;99906.49;1480974;86;20372;-89
2022/07/30 10:09:25;;;;;;;;;;;;;;;31.80;40.30;99897.23;1469612;87;20524;-89
2022/07/30 10:11:53;;;;;;;;;;;;;;;31.88;40.18;99899.27;1469757;87;20299;-88
2022/07/30 10:14:20;;;;;;;;;;;;;;;32.06;39.59;99898.15;1491887;86;20299;-89
2022/07/30 10:16:46;;;;;;;;;;;;;;;32.22;39.55;99900.02;1453638;87;20254;-88
2022/07/30 10:19:12;;;;;;;;;;;;;;;32.30;39.01;99895.20;1484979;86;20816;-88
2022/07/30 10:21:38;;;;;;;;;;;;;;;32.36;39.08;99896.14;1494233;87;20355;-89
2022/07/30 10:24:05;;;;;;;;;;;;;;;32.35;39.31;99891.80;1475094;87;20324;-88
2022/07/30 10:26:33;;;;;;;;;;;;;;;32.23;39.10;99892.07;1510756;86;20280;-88
2022/07/30 10:29:00;;;;;;;;;;;;;;;32.21;39.11;99895.09;1497364;86;20376;-88
2022/07/30 10:31:26;;;;;;;;;;;;;;;32.33;38.46;99888.55;1468211;87;20793;-89
2022/07/30 10:33:53;;;;;;;;;;;;;;;32.43;37.13;99892.20;1463157;86;20292;-88
2022/07/30 10:36:21;;;;;;;;;;;;;;;32.61;38.49;99890.48;1479785;86;20272;-89
2022/07/30 10:38:47;;;;;;;;;;;;;;;32.81;36.40;99885.91;1478172;87;20274;-88
2022/07/30 10:41:35;;;;;;;;;;;;;;;32.98;36.63;99880.57;1472360;86;20268;-88
2022/07/30 10:44:11;;;;;;;;;;;;;;;33.17;38.42;99878.23;1466640;86;20329;-88
2022/07/30 10:46:52;;;;;;;;;;;;;;;32.91;35.55;99872.52;1449795;86;21055;-88
2022/07/30 10:49:18;;;;;;;;;;;;;;;33.02;37.45;99875.30;1472344;86;20409;-88
2022/07/30 10:51:46;;;;;;;;;;;;;;;33.14;34.88;99863.20;1497019;86;20255;-88
2022/07/30 10:54:36;;;;;;;;;;;;;;;32.70;35.62;99850.27;1499394;86;20331;-89
2022/07/30 10:57:10;;;;;;;;;;;;;;;32.72;36.76;99844.73;1491507;86;21504;-89
2022/07/30 10:59:58;;;;;;;;;;;;;;;32.67;37.15;99839.38;1485398;86;20292;-88
2022/07/30 11:02:25;;;;;;;;;;;;;;;32.27;36.51;99819.16;1462502;88;20277;-90
2022/07/30 11:05:18;;;;;;;;;;;;;;;32.09;37.04;99814.06;1467315;87;20217;-88
2022/07/30 11:07:45;;;;;;;;;;;;;;;32.03;37.29;99807.08;1462504;88;20811;-88
2022/07/30 11:10:36;;;;;;;;;;;;;;;31.96;37.93;99797.09;1492777;87;20392;-89
2022/07/30 11:13:03;;;;;;;;;;;;;;;32.16;37.30;99790.38;1465460;86;20320;-89
2022/07/30 11:15:53;;;;;;;;;;;;;;;32.52;37.04;99769.89;1498051;86;20310;-88
2022/07/30 11:18:19;;;;;;;;;;;;;;;32.76;36.59;99756.69;1467160;88;20313;-87
2022/07/30 11:20:58;;;;;;;;;;;;;;;33.01;36.22;99744.88;1466372;88;20351;-88
2022/07/30 11:23:28;;;;;;;;;;;;;;;33.24;36.41;99738.22;1461944;86;20334;-88
2022/07/30 11:25:55;;;;;;;;;;;;;;;33.61;36.12;99739.45;1471412;88;20362;-89
2022/07/30 11:28:37;;;;;;;;;;;;;;;33.82;34.32;99738.28;1447961;90;21275;-88
2022/07/30 11:31:05;;;;;;;;;;;;;;;33.47;34.53;99747.75;1449548;89;20368;-88
2022/07/30 11:33:31;;;;;;;;;;;;;;;33.64;34.84;99760.19;1433765;89;20375;-90
2022/07/30 11:36:12;;;;;;;;;;;;;;;33.86;34.78;99755.14;1449600;89;20867;-88
2022/07/30 11:38:55;;;;;;;;;;;;;;;33.94;34.31;99754.92;1447143;88;20492;-88
2022/07/30 11:41:23;;;;;;;;;;;;;;;34.02;34.50;99747.84;1443717;89;20302;-87
2022/07/30 11:43:53;;;;;;;;;;;;;;;34.20;35.01;99732.22;1451205;89;20825;-88
2022/07/30 11:46:22;;;;;;;;;;;;;;;34.13;34.04;99717.04;1442987;89;20418;-87
2022/07/30 11:48:56;;;;;;;;;;;;;;;34.01;33.18;99697.63;1449035;88;20811;-88
2022/07/30 11:51:23;;;;;;;;;;;;;;;33.61;33.84;99696.36;1471010;88;20319;-89
2022/07/30 11:54:03;;;;;;;;;;;;;;;33.43;35.20;99701.50;1464709;88;20321;-88
2022/07/30 11:56:29;;;;;;;;;;;;;;;33.14;35.55;99700.09;1549002;89;20284;-89
2022/07/30 11:59:04;;;;;;;;;;;;;;;32.89;35.88;99719.95;1477826;88;20938;-86
2022/07/30 12:01:32;;;;;;;;;;;;;;;32.75;36.59;99733.16;1473204;88;20328;-87
2022/07/30 12:04:03;;;;;;;;;;;;;;;32.50;36.96;99743.36;1549050;88;20232;-87
2022/07/30 12:06:30;;;;;;;;;;;;;;;32.22;36.96;99738.50;1385638;91;20272;-89
2022/07/30 12:08:57;;;;;;;;;;;;;;;32.03;37.83;99741.41;1361764;91;20334;-90
2022/07/30 12:11:24;;;;;;;;;;;;;;;31.78;38.11;99755.83;1536182;88;20255;-88
2022/07/30 12:17:05;;;;;;;;;;;;;;;30.95;35.85;99778.93;1468812;85;20852;-87
2022/07/30 12:19:35;;;;;;;;;;;;;;;29.97;39.49;99766.95;1495382;86;20470;-87
2022/07/30 12:22:23;;;;;;;;;;;;;;;29.39;42.44;99777.41;1474326;88;20327;-87
2022/07/30 12:24:49;;;;;;;;;;;;;;;28.97;43.41;99773.39;1463102;88;20851;-89
2022/07/30 12:27:18;;;;;;;;;;;;;;;28.64;44.37;99764.14;1456566;90;20840;-89
2022/07/30 12:29:44;;;;;;;;;;;;;;;28.39;46.20;99761.81;1442592;89;20796;-88
2022/07/30 12:32:10;;;;;;;;;;;;;;;28.18;48.05;99755.69;1485962;87;20297;-89
2022/07/30 12:34:36;;;;;;;;;;;;;;;27.93;50.22;99747.65;1475973;87;20363;-88
2022/07/30 12:37:09;;;;;;;;;;;;;;;27.68;53.88;99742.56;1448074;88;20309;-90
2022/07/30 12:39:35;;;;;;;;;;;;;;;27.56;54.92;99742.05;1408353;90;20864;-90
2022/07/30 12:42:03;;;;;;;;;;;;;;;27.34;56.40;99736.41;1406901;91;20285;-90
2022/07/30 12:44:43;;;;;;;;;;;;;;;27.19;55.25;99736.45;1429354;91;20384;-91
2022/07/30 12:47:22;;;;;;;;;;;;;;;27.05;56.04;99737.52;1421408;92;20902;-90
2022/07/30 12:49:46;;;;;;;;;;;;;;;26.92;58.47;99722.58;1422210;91;20295;-90